sensor_id;sensor_type;location;lat;lon;timestamp;temperature;humidity
46720;DHT22;32452;51.382;-0.002;2023-01-19T00:01:25;1.50;99.90
46720;DHT22;32452;51.382;-0.002;2023-01-19T00:04:13;1.50;99.90
46720;DHT22;32452;51.382;-0.002;2023-01-19T00:07:00;1.50;99.90
46720;DHT22;32452;51.382;-0.002;2023-01-19T00:09:58;1.50;99.90
46720;DHT22;32452;51.382;-0.002;2023-01-19T00:12:43;1.50;99.90
46720;DHT22;32452;51.382;-0.002;2023-01-19T00:15:29;1.40;99.90
46720;DHT22;32452;51.382;-0.002;2023-01-19T00:18:14;1.40;99.90
46720;DHT22;32452;51.382;-0.002;2023-01-19T00:21:00;1.40;99.90
46720;DHT22;32452;51.382;-0.002;2023-01-19T00:23:46;1.30;99.90
46720;DHT22;32452;51.382;-0.002;2023-01-19T00:26:32;1.30;99.90
46720;DHT22;32452;51.382;-0.002;2023-01-19T00:29:22;1.30;99.90
46720;DHT22;32452;51.382;-0.002;2023-01-19T00:32:08;1.30;99.90
46720;DHT22;32452;51.382;-0.002;2023-01-19T00:34:54;1.30;99.90
46720;DHT22;32452;51.382;-0.002;2023-01-19T00:37:47;1.30;99.90
46720;DHT22;32452;51.382;-0.002;2023-01-19T00:40:32;1.30;99.90
46720;DHT22;32452;51.382;-0.002;2023-01-19T00:43:18;1.20;99.90
46720;DHT22;32452;51.382;-0.002;2023-01-19T00:46:06;1.20;99.90
46720;DHT22;32452;51.382;-0.002;2023-01-19T00:48:55;1.20;99.90
46720;DHT22;32452;51.382;-0.002;2023-01-19T00:51:41;1.20;99.90
46720;DHT22;32452;51.382;-0.002;2023-01-19T00:54:26;1.20;99.90
46720;DHT22;32452;51.382;-0.002;2023-01-19T00:57:17;1.20;99.90
46720;DHT22;32452;51.382;-0.002;2023-01-19T01:00:41;1.20;99.90
46720;DHT22;32452;51.382;-0.002;2023-01-19T01:03:26;1.20;99.90
46720;DHT22;32452;51.382;-0.002;2023-01-19T01:06:12;1.20;99.90
46720;DHT22;32452;51.382;-0.002;2023-01-19T01:08:58;1.20;99.90
46720;DHT22;32452;51.382;-0.002;2023-01-19T01:11:43;1.20;99.90
46720;DHT22;32452;51.382;-0.002;2023-01-19T01:14:29;1.20;99.90
46720;DHT22;32452;51.382;-0.002;2023-01-19T01:17:14;1.20;99.90
46720;DHT22;32452;51.382;-0.002;2023-01-19T01:20:00;1.10;99.90
46720;DHT22;32452;51.382;-0.002;2023-01-19T01:22:48;1.10;99.90
46720;DHT22;32452;51.382;-0.002;2023-01-19T01:25:34;1.10;99.90
46720;DHT22;32452;51.382;-0.002;2023-01-19T01:28:21;1.10;99.90
46720;DHT22;32452;51.382;-0.002;2023-01-19T01:31:07;1.00;99.90
46720;DHT22;32452;51.382;-0.002;2023-01-19T01:33:52;1.00;99.90
46720;DHT22;32452;51.382;-0.002;2023-01-19T01:36:38;1.00;99.90
46720;DHT22;32452;51.382;-0.002;2023-01-19T01:39:23;1.00;99.90
46720;DHT22;32452;51.382;-0.002;2023-01-19T01:42:18;1.00;99.90
46720;DHT22;32452;51.382;-0.002;2023-01-19T01:45:15;1.00;99.90
46720;DHT22;32452;51.382;-0.002;2023-01-19T01:51:01;1.00;99.90
46720;DHT22;32452;51.382;-0.002;2023-01-19T01:54:15;1.00;99.90
46720;DHT22;32452;51.382;-0.002;2023-01-19T01:57:05;1.00;99.90
46720;DHT22;32452;51.382;-0.002;2023-01-19T01:59:57;1.00;99.90
46720;DHT22;32452;51.382;-0.002;2023-01-19T02:02:43;0.90;99.90
46720;DHT22;32452;51.382;-0.002;2023-01-19T02:05:35;0.90;99.90
46720;DHT22;32452;51.382;-0.002;2023-01-19T02:08:41;0.90;99.90
46720;DHT22;32452;51.382;-0.002;2023-01-19T02:11:46;0.90;99.90
46720;DHT22;32452;51.382;-0.002;2023-01-19T02:14:50;0.90;99.90
46720;DHT22;32452;51.382;-0.002;2023-01-19T02:17:36;0.80;99.90
46720;DHT22;32452;51.382;-0.002;2023-01-19T02:20:23;0.80;99.90
46720;DHT22;32452;51.382;-0.002;2023-01-19T02:23:16;0.80;99.90
46720;DHT22;32452;51.382;-0.002;2023-01-19T02:26:05;0.80;99.90
46720;DHT22;32452;51.382;-0.002;2023-01-19T02:29:10;0.80;99.90
46720;DHT22;32452;51.382;-0.002;2023-01-19T02:31:56;0.70;99.90
46720;DHT22;32452;51.382;-0.002;2023-01-19T02:34:44;0.70;99.90
46720;DHT22;32452;51.382;-0.002;2023-01-19T02:37:32;0.70;99.90
46720;DHT22;32452;51.382;-0.002;2023-01-19T02:40:22;0.70;99.90
46720;DHT22;32452;51.382;-0.002;2023-01-19T02:43:09;0.60;99.90
46720;DHT22;32452;51.382;-0.002;2023-01-19T02:45:55;0.60;99.90
46720;DHT22;32452;51.382;-0.002;2023-01-19T02:48:41;0.60;99.90
46720;DHT22;32452;51.382;-0.002;2023-01-19T02:51:26;0.60;99.90
46720;DHT22;32452;51.382;-0.002;2023-01-19T03:03:57;0.40;99.90
46720;DHT22;32452;51.382;-0.002;2023-01-19T03:07:07;0.40;99.90
46720;DHT22;32452;51.382;-0.002;2023-01-19T03:19:33;0.30;99.90
46720;DHT22;32452;51.382;-0.002;2023-01-19T03:22:24;0.30;99.90
46720;DHT22;32452;51.382;-0.002;2023-01-19T03:25:11;0.30;99.90
46720;DHT22;32452;51.382;-0.002;2023-01-19T03:28:03;0.30;99.90
46720;DHT22;32452;51.382;-0.002;2023-01-19T03:31:01;0.30;99.90
46720;DHT22;32452;51.382;-0.002;2023-01-19T03:38:26;0.30;99.90
46720;DHT22;32452;51.382;-0.002;2023-01-19T03:41:15;0.30;99.90
46720;DHT22;32452;51.382;-0.002;2023-01-19T03:44:02;0.20;99.90
46720;DHT22;32452;51.382;-0.002;2023-01-19T03:46:51;0.20;99.90
46720;DHT22;32452;51.382;-0.002;2023-01-19T03:49:37;0.20;99.90
46720;DHT22;32452;51.382;-0.002;2023-01-19T03:52:31;0.20;99.90
46720;DHT22;32452;51.382;-0.002;2023-01-19T03:55:18;0.20;99.90
46720;DHT22;32452;51.382;-0.002;2023-01-19T03:58:03;0.20;99.90
46720;DHT22;32452;51.382;-0.002;2023-01-19T04:00:49;0.20;99.90
46720;DHT22;32452;51.382;-0.002;2023-01-19T04:03:35;0.20;99.90
46720;DHT22;32452;51.382;-0.002;2023-01-19T04:06:21;0.20;99.90
46720;DHT22;32452;51.382;-0.002;2023-01-19T04:09:07;0.20;99.90
46720;DHT22;32452;51.382;-0.002;2023-01-19T04:11:52;0.20;99.90
46720;DHT22;32452;51.382;-0.002;2023-01-19T04:14:38;0.20;99.90
46720;DHT22;32452;51.382;-0.002;2023-01-19T04:17:24;0.20;99.90
46720;DHT22;32452;51.382;-0.002;2023-01-19T04:20:09;0.20;99.90
46720;DHT22;32452;51.382;-0.002;2023-01-19T04:22:58;0.20;99.90
46720;DHT22;32452;51.382;-0.002;2023-01-19T04:25:45;0.20;99.90
46720;DHT22;32452;51.382;-0.002;2023-01-19T04:28:31;0.20;99.90
46720;DHT22;32452;51.382;-0.002;2023-01-19T04:31:17;0.20;99.90
46720;DHT22;32452;51.382;-0.002;2023-01-19T04:34:03;0.20;99.90
46720;DHT22;32452;51.382;-0.002;2023-01-19T04:36:49;0.20;99.90
46720;DHT22;32452;51.382;-0.002;2023-01-19T04:39:35;0.20;99.90
46720;DHT22;32452;51.382;-0.002;2023-01-19T04:42:21;0.20;99.90
46720;DHT22;32452;51.382;-0.002;2023-01-19T04:45:07;0.20;99.90
46720;DHT22;32452;51.382;-0.002;2023-01-19T04:47:53;0.20;99.90
46720;DHT22;32452;51.382;-0.002;2023-01-19T04:50:39;0.20;99.90
46720;DHT22;32452;51.382;-0.002;2023-01-19T04:53:25;0.20;99.90
46720;DHT22;32452;51.382;-0.002;2023-01-19T04:56:11;0.20;99.90
46720;DHT22;32452;51.382;-0.002;2023-01-19T04:58:56;0.20;99.90
46720;DHT22;32452;51.382;-0.002;2023-01-19T05:01:42;0.20;99.90
46720;DHT22;32452;51.382;-0.002;2023-01-19T05:04:27;0.20;99.90
46720;DHT22;32452;51.382;-0.002;2023-01-19T05:07:13;0.20;99.90
46720;DHT22;32452;51.382;-0.002;2023-01-19T05:09:58;0.20;99.90
46720;DHT22;32452;51.382;-0.002;2023-01-19T05:12:44;0.20;99.90
46720;DHT22;32452;51.382;-0.002;2023-01-19T05:15:30;0.20;99.90
46720;DHT22;32452;51.382;-0.002;2023-01-19T05:18:15;0.20;99.90
46720;DHT22;32452;51.382;-0.002;2023-01-19T05:21:02;0.10;99.90
46720;DHT22;32452;51.382;-0.002;2023-01-19T05:23:47;0.10;99.90
46720;DHT22;32452;51.382;-0.002;2023-01-19T05:26:33;0.10;99.90
46720;DHT22;32452;51.382;-0.002;2023-01-19T05:29:18;0.10;99.90
46720;DHT22;32452;51.382;-0.002;2023-01-19T05:32:04;0.10;99.90
46720;DHT22;32452;51.382;-0.002;2023-01-19T05:34:50;0.10;99.90
46720;DHT22;32452;51.382;-0.002;2023-01-19T05:37:36;0.10;99.90
46720;DHT22;32452;51.382;-0.002;2023-01-19T05:40:21;0.10;99.90
46720;DHT22;32452;51.382;-0.002;2023-01-19T05:43:07;0.00;99.90
46720;DHT22;32452;51.382;-0.002;2023-01-19T05:45:52;0.10;99.90
46720;DHT22;32452;51.382;-0.002;2023-01-19T05:48:38;0.10;99.90
46720;DHT22;32452;51.382;-0.002;2023-01-19T05:51:24;0.00;99.90
46720;DHT22;32452;51.382;-0.002;2023-01-19T05:54:12;0.00;99.90
46720;DHT22;32452;51.382;-0.002;2023-01-19T05:57:01;0.00;99.90
46720;DHT22;32452;51.382;-0.002;2023-01-19T05:59:50;0.00;99.90
46720;DHT22;32452;51.382;-0.002;2023-01-19T06:02:45;0.00;99.90
46720;DHT22;32452;51.382;-0.002;2023-01-19T06:05:32;0.00;99.90
46720;DHT22;32452;51.382;-0.002;2023-01-19T06:08:18;0.00;99.90
46720;DHT22;32452;51.382;-0.002;2023-01-19T06:11:05;0.00;99.90
46720;DHT22;32452;51.382;-0.002;2023-01-19T06:13:51;-0.10;99.90
46720;DHT22;32452;51.382;-0.002;2023-01-19T06:16:37;-0.10;99.90
46720;DHT22;32452;51.382;-0.002;2023-01-19T06:19:22;-0.10;99.90
46720;DHT22;32452;51.382;-0.002;2023-01-19T06:22:08;0.00;99.90
46720;DHT22;32452;51.382;-0.002;2023-01-19T06:24:53;0.00;99.90
46720;DHT22;32452;51.382;-0.002;2023-01-19T06:27:42;0.00;99.90
46720;DHT22;32452;51.382;-0.002;2023-01-19T06:30:29;0.00;99.90
46720;DHT22;32452;51.382;-0.002;2023-01-19T06:33:22;0.00;99.90
46720;DHT22;32452;51.382;-0.002;2023-01-19T06:36:08;0.00;99.90
46720;DHT22;32452;51.382;-0.002;2023-01-19T06:38:54;0.00;99.90
46720;DHT22;32452;51.382;-0.002;2023-01-19T06:41:39;0.00;99.90
46720;DHT22;32452;51.382;-0.002;2023-01-19T06:44:25;0.00;99.90
46720;DHT22;32452;51.382;-0.002;2023-01-19T06:47:11;0.00;99.90
46720;DHT22;32452;51.382;-0.002;2023-01-19T06:50:00;0.00;99.90
46720;DHT22;32452;51.382;-0.002;2023-01-19T06:52:52;-0.10;99.90
46720;DHT22;32452;51.382;-0.002;2023-01-19T06:55:38;-0.10;99.90
46720;DHT22;32452;51.382;-0.002;2023-01-19T06:58:23;-0.10;99.90
46720;DHT22;32452;51.382;-0.002;2023-01-19T07:01:09;-0.10;99.90
46720;DHT22;32452;51.382;-0.002;2023-01-19T07:03:55;-0.10;99.90
46720;DHT22;32452;51.382;-0.002;2023-01-19T07:06:40;-0.10;99.90
46720;DHT22;32452;51.382;-0.002;2023-01-19T07:09:26;-0.10;99.90
46720;DHT22;32452;51.382;-0.002;2023-01-19T07:12:11;-0.10;99.90
46720;DHT22;32452;51.382;-0.002;2023-01-19T07:14:57;-0.10;99.90
46720;DHT22;32452;51.382;-0.002;2023-01-19T07:17:42;-0.10;99.90
46720;DHT22;32452;51.382;-0.002;2023-01-19T07:20:28;-0.10;99.90
46720;DHT22;32452;51.382;-0.002;2023-01-19T07:23:17;-0.10;99.90
46720;DHT22;32452;51.382;-0.002;2023-01-19T07:26:02;-0.10;99.90
46720;DHT22;32452;51.382;-0.002;2023-01-19T07:28:49;-0.20;99.90
46720;DHT22;32452;51.382;-0.002;2023-01-19T07:31:34;-0.20;99.90
46720;DHT22;32452;51.382;-0.002;2023-01-19T07:34:20;-0.20;99.90
46720;DHT22;32452;51.382;-0.002;2023-01-19T07:37:05;-0.20;99.90
46720;DHT22;32452;51.382;-0.002;2023-01-19T07:39:51;-0.20;99.90
46720;DHT22;32452;51.382;-0.002;2023-01-19T07:42:36;-0.20;99.90
46720;DHT22;32452;51.382;-0.002;2023-01-19T07:45:22;-0.20;99.90
46720;DHT22;32452;51.382;-0.002;2023-01-19T07:48:08;-0.20;99.90
46720;DHT22;32452;51.382;-0.002;2023-01-19T07:51:01;-0.10;99.90
46720;DHT22;32452;51.382;-0.002;2023-01-19T07:53:50;-0.10;99.90
46720;DHT22;32452;51.382;-0.002;2023-01-19T07:56:35;-0.10;99.90
46720;DHT22;32452;51.382;-0.002;2023-01-19T07:59:21;-0.10;99.90
46720;DHT22;32452;51.382;-0.002;2023-01-19T08:02:09;-0.10;99.90
46720;DHT22;32452;51.382;-0.002;2023-01-19T08:04:54;-0.10;99.90
46720;DHT22;32452;51.382;-0.002;2023-01-19T08:07:40;-0.10;99.90
46720;DHT22;32452;51.382;-0.002;2023-01-19T08:10:27;-0.10;99.90
46720;DHT22;32452;51.382;-0.002;2023-01-19T08:13:12;-0.10;99.90
46720;DHT22;32452;51.382;-0.002;2023-01-19T08:15:58;-0.10;99.90
46720;DHT22;32452;51.382;-0.002;2023-01-19T08:18:43;-0.10;99.90
46720;DHT22;32452;51.382;-0.002;2023-01-19T08:21:29;0.00;99.90
46720;DHT22;32452;51.382;-0.002;2023-01-19T08:24:20;0.00;99.90
46720;DHT22;32452;51.382;-0.002;2023-01-19T08:27:06;0.00;99.90
46720;DHT22;32452;51.382;-0.002;2023-01-19T08:29:53;0.00;99.90
46720;DHT22;32452;51.382;-0.002;2023-01-19T08:32:39;0.10;99.90
46720;DHT22;32452;51.382;-0.002;2023-01-19T08:35:24;0.10;99.90
46720;DHT22;32452;51.382;-0.002;2023-01-19T08:38:10;0.20;99.90
46720;DHT22;32452;51.382;-0.002;2023-01-19T08:40:56;0.20;99.90
46720;DHT22;32452;51.382;-0.002;2023-01-19T08:43:41;0.30;99.90
46720;DHT22;32452;51.382;-0.002;2023-01-19T08:46:27;0.30;99.90
46720;DHT22;32452;51.382;-0.002;2023-01-19T08:49:13;0.40;99.90
46720;DHT22;32452;51.382;-0.002;2023-01-19T08:52:00;0.40;99.90
46720;DHT22;32452;51.382;-0.002;2023-01-19T08:54:47;0.50;99.90
46720;DHT22;32452;51.382;-0.002;2023-01-19T08:57:33;0.50;99.90
46720;DHT22;32452;51.382;-0.002;2023-01-19T09:00:20;0.50;99.90
46720;DHT22;32452;51.382;-0.002;2023-01-19T09:03:11;0.50;99.90
46720;DHT22;32452;51.382;-0.002;2023-01-19T09:06:04;0.60;99.90
46720;DHT22;32452;51.382;-0.002;2023-01-19T09:08:51;0.60;99.90
46720;DHT22;32452;51.382;-0.002;2023-01-19T09:11:38;0.60;99.90
46720;DHT22;32452;51.382;-0.002;2023-01-19T09:14:28;0.60;99.90
46720;DHT22;32452;51.382;-0.002;2023-01-19T09:17:16;0.70;99.90
46720;DHT22;32452;51.382;-0.002;2023-01-19T09:20:16;0.90;99.90
46720;DHT22;32452;51.382;-0.002;2023-01-19T09:23:04;1.20;99.90
46720;DHT22;32452;51.382;-0.002;2023-01-19T09:25:56;1.60;99.90
46720;DHT22;32452;51.382;-0.002;2023-01-19T09:28:44;2.30;99.90
46720;DHT22;32452;51.382;-0.002;2023-01-19T09:31:32;3.10;99.90
46720;DHT22;32452;51.382;-0.002;2023-01-19T09:34:23;3.80;99.90
46720;DHT22;32452;51.382;-0.002;2023-01-19T09:37:11;4.60;99.90
46720;DHT22;32452;51.382;-0.002;2023-01-19T09:39:58;5.40;99.90
46720;DHT22;32452;51.382;-0.002;2023-01-19T09:43:53;6.10;99.90
46720;DHT22;32452;51.382;-0.002;2023-01-19T09:46:22;7.00;99.90
46720;DHT22;32452;51.382;-0.002;2023-01-19T09:49:15;7.70;99.90
46720;DHT22;32452;51.382;-0.002;2023-01-19T09:52:06;8.30;99.90
46720;DHT22;32452;51.382;-0.002;2023-01-19T09:55:08;8.70;99.90
46720;DHT22;32452;51.382;-0.002;2023-01-19T09:58:11;9.00;98.30
46720;DHT22;32452;51.382;-0.002;2023-01-19T10:07:31;10.20;93.50
46720;DHT22;32452;51.382;-0.002;2023-01-19T10:10:31;10.50;91.90
46720;DHT22;32452;51.382;-0.002;2023-01-19T10:13:44;10.70;90.40
46720;DHT22;32452;51.382;-0.002;2023-01-19T10:16:56;10.90;88.70
46720;DHT22;32452;51.382;-0.002;2023-01-19T10:19:52;11.20;86.30
46720;DHT22;32452;51.382;-0.002;2023-01-19T10:22:44;11.40;84.20
46720;DHT22;32452;51.382;-0.002;2023-01-19T10:25:33;11.50;81.10
46720;DHT22;32452;51.382;-0.002;2023-01-19T10:28:24;11.60;79.60
46720;DHT22;32452;51.382;-0.002;2023-01-19T10:31:14;11.60;77.80
46720;DHT22;32452;51.382;-0.002;2023-01-19T10:34:08;11.60;76.80
46720;DHT22;32452;51.382;-0.002;2023-01-19T10:37:03;11.80;75.90
46720;DHT22;32452;51.382;-0.002;2023-01-19T10:42:58;11.90;72.30
46720;DHT22;32452;51.382;-0.002;2023-01-19T10:45:50;12.00;71.50
46720;DHT22;32452;51.382;-0.002;2023-01-19T10:48:39;12.10;70.60
46720;DHT22;32452;51.382;-0.002;2023-01-19T10:51:27;12.30;70.10
46720;DHT22;32452;51.382;-0.002;2023-01-19T10:54:16;12.50;69.20
46720;DHT22;32452;51.382;-0.002;2023-01-19T10:57:07;12.70;68.20
46720;DHT22;32452;51.382;-0.002;2023-01-19T11:03:36;13.00;65.50
46720;DHT22;32452;51.382;-0.002;2023-01-19T11:06:30;13.00;64.50
46720;DHT22;32452;51.382;-0.002;2023-01-19T11:09:24;13.00;64.50
46720;DHT22;32452;51.382;-0.002;2023-01-19T11:12:21;13.00;64.10
46720;DHT22;32452;51.382;-0.002;2023-01-19T11:15:26;13.20;63.50
46720;DHT22;32452;51.382;-0.002;2023-01-19T11:18:33;13.40;63.10
46720;DHT22;32452;51.382;-0.002;2023-01-19T11:21:25;13.70;62.70
46720;DHT22;32452;51.382;-0.002;2023-01-19T11:24:16;13.80;65.10
46720;DHT22;32452;51.382;-0.002;2023-01-19T11:27:04;14.00;64.00
46720;DHT22;32452;51.382;-0.002;2023-01-19T11:30:05;14.10;62.40
46720;DHT22;32452;51.382;-0.002;2023-01-19T11:32:57;14.20;60.60
46720;DHT22;32452;51.382;-0.002;2023-01-19T11:35:44;14.30;60.00
46720;DHT22;32452;51.382;-0.002;2023-01-19T11:38:44;14.30;59.20
46720;DHT22;32452;51.382;-0.002;2023-01-19T11:41:51;14.30;58.00
46720;DHT22;32452;51.382;-0.002;2023-01-19T11:50:34;14.20;56.80
46720;DHT22;32452;51.382;-0.002;2023-01-19T11:53:29;14.10;57.10
46720;DHT22;32452;51.382;-0.002;2023-01-19T11:56:27;13.90;56.90
46720;DHT22;32452;51.382;-0.002;2023-01-19T11:59:15;13.20;57.00
46720;DHT22;32452;51.382;-0.002;2023-01-19T12:02:22;12.40;57.90
46720;DHT22;32452;51.382;-0.002;2023-01-19T12:05:15;11.80;58.70
46720;DHT22;32452;51.382;-0.002;2023-01-19T12:08:14;11.20;59.90
46720;DHT22;32452;51.382;-0.002;2023-01-19T12:11:05;10.80;61.00
46720;DHT22;32452;51.382;-0.002;2023-01-19T12:13:57;10.60;61.70
46720;DHT22;32452;51.382;-0.002;2023-01-19T12:16:47;10.40;62.00
46720;DHT22;32452;51.382;-0.002;2023-01-19T12:22:37;10.10;62.90
46720;DHT22;32452;51.382;-0.002;2023-01-19T12:28:33;10.00;64.20
46720;DHT22;32452;51.382;-0.002;2023-01-19T12:31:23;10.40;64.50
46720;DHT22;32452;51.382;-0.002;2023-01-19T12:37:36;11.00;62.50
46720;DHT22;32452;51.382;-0.002;2023-01-19T12:40:24;11.20;62.60
46720;DHT22;32452;51.382;-0.002;2023-01-19T12:43:15;11.50;63.20
46720;DHT22;32452;51.382;-0.002;2023-01-19T12:46:26;12.00;62.00
46720;DHT22;32452;51.382;-0.002;2023-01-19T12:49:32;12.40;61.10
46720;DHT22;32452;51.382;-0.002;2023-01-19T12:52:46;12.80;60.30
46720;DHT22;32452;51.382;-0.002;2023-01-19T12:55:37;13.10;59.80
46720;DHT22;32452;51.382;-0.002;2023-01-19T12:58:24;13.20;59.50
46720;DHT22;32452;51.382;-0.002;2023-01-19T13:01:14;13.30;58.80
46720;DHT22;32452;51.382;-0.002;2023-01-19T13:04:26;13.30;58.30
46720;DHT22;32452;51.382;-0.002;2023-01-19T13:07:13;13.30;58.00
46720;DHT22;32452;51.382;-0.002;2023-01-19T13:19:16;13.70;57.00
46720;DHT22;32452;51.382;-0.002;2023-01-19T13:25:33;13.60;55.40
46720;DHT22;32452;51.382;-0.002;2023-01-19T13:28:34;13.50;56.00
46720;DHT22;32452;51.382;-0.002;2023-01-19T13:31:24;13.50;56.10
46720;DHT22;32452;51.382;-0.002;2023-01-19T13:34:17;13.40;55.90
46720;DHT22;32452;51.382;-0.002;2023-01-19T13:37:05;13.40;55.90
46720;DHT22;32452;51.382;-0.002;2023-01-19T13:39:54;13.30;56.00
46720;DHT22;32452;51.382;-0.002;2023-01-19T13:42:42;13.30;56.10
46720;DHT22;32452;51.382;-0.002;2023-01-19T13:45:34;13.30;56.00
46720;DHT22;32452;51.382;-0.002;2023-01-19T13:48:24;13.40;56.00
46720;DHT22;32452;51.382;-0.002;2023-01-19T13:51:20;13.40;56.10
46720;DHT22;32452;51.382;-0.002;2023-01-19T13:54:14;13.50;55.80
46720;DHT22;32452;51.382;-0.002;2023-01-19T13:57:01;13.60;55.80
46720;DHT22;32452;51.382;-0.002;2023-01-19T14:02:53;13.60;55.30
46720;DHT22;32452;51.382;-0.002;2023-01-19T14:05:42;13.60;54.60
46720;DHT22;32452;51.382;-0.002;2023-01-19T14:08:29;13.40;54.60
46720;DHT22;32452;51.382;-0.002;2023-01-19T14:11:17;13.20;55.00
46720;DHT22;32452;51.382;-0.002;2023-01-19T14:14:19;13.10;55.00
46720;DHT22;32452;51.382;-0.002;2023-01-19T14:17:29;12.90;54.80
46720;DHT22;32452;51.382;-0.002;2023-01-19T14:20:29;12.80;55.00
46720;DHT22;32452;51.382;-0.002;2023-01-19T14:24:05;12.60;56.00
46720;DHT22;32452;51.382;-0.002;2023-01-19T14:26:53;12.50;55.50
46720;DHT22;32452;51.382;-0.002;2023-01-19T14:29:41;12.50;55.80
46720;DHT22;32452;51.382;-0.002;2023-01-19T14:32:28;12.40;55.90
46720;DHT22;32452;51.382;-0.002;2023-01-19T14:35:25;12.40;56.40
46720;DHT22;32452;51.382;-0.002;2023-01-19T14:38:13;12.20;55.60
46720;DHT22;32452;51.382;-0.002;2023-01-19T14:41:01;12.10;55.80
46720;DHT22;32452;51.382;-0.002;2023-01-19T14:43:48;11.90;56.10
46720;DHT22;32452;51.382;-0.002;2023-01-19T14:46:35;11.80;56.50
46720;DHT22;32452;51.382;-0.002;2023-01-19T14:49:45;11.70;56.60
46720;DHT22;32452;51.382;-0.002;2023-01-19T14:52:41;11.60;56.50
46720;DHT22;32452;51.382;-0.002;2023-01-19T14:55:42;11.40;56.30
46720;DHT22;32452;51.382;-0.002;2023-01-19T14:58:32;11.30;56.50
46720;DHT22;32452;51.382;-0.002;2023-01-19T15:01:19;11.00;56.40
46720;DHT22;32452;51.382;-0.002;2023-01-19T15:04:06;10.70;56.60
46720;DHT22;32452;51.382;-0.002;2023-01-19T15:06:54;10.30;56.90
46720;DHT22;32452;51.382;-0.002;2023-01-19T15:09:41;9.90;57.30
46720;DHT22;32452;51.382;-0.002;2023-01-19T15:12:30;9.70;58.00
46720;DHT22;32452;51.382;-0.002;2023-01-19T15:15:28;9.50;58.50
46720;DHT22;32452;51.382;-0.002;2023-01-19T15:18:24;9.30;58.70
46720;DHT22;32452;51.382;-0.002;2023-01-19T15:21:14;9.20;59.20
46720;DHT22;32452;51.382;-0.002;2023-01-19T15:24:00;9.20;59.40
46720;DHT22;32452;51.382;-0.002;2023-01-19T15:26:45;9.10;59.50
46720;DHT22;32452;51.382;-0.002;2023-01-19T15:29:31;9.00;59.50
46720;DHT22;32452;51.382;-0.002;2023-01-19T15:32:18;8.80;59.40
46720;DHT22;32452;51.382;-0.002;2023-01-19T15:35:11;8.70;59.50
46720;DHT22;32452;51.382;-0.002;2023-01-19T15:37:57;8.50;59.70
46720;DHT22;32452;51.382;-0.002;2023-01-19T15:40:46;8.30;59.90
46720;DHT22;32452;51.382;-0.002;2023-01-19T15:43:36;8.20;60.30
46720;DHT22;32452;51.382;-0.002;2023-01-19T15:46:23;8.00;60.70
46720;DHT22;32452;51.382;-0.002;2023-01-19T15:49:10;7.90;61.10
46720;DHT22;32452;51.382;-0.002;2023-01-19T15:51:55;7.70;61.50
46720;DHT22;32452;51.382;-0.002;2023-01-19T15:54:41;7.50;61.70
46720;DHT22;32452;51.382;-0.002;2023-01-19T15:57:27;7.40;62.20
46720;DHT22;32452;51.382;-0.002;2023-01-19T16:00:12;7.30;62.60
46720;DHT22;32452;51.382;-0.002;2023-01-19T16:03:00;7.10;62.90
46720;DHT22;32452;51.382;-0.002;2023-01-19T16:05:48;7.00;63.30
46720;DHT22;32452;51.382;-0.002;2023-01-19T16:08:34;6.90;63.50
46720;DHT22;32452;51.382;-0.002;2023-01-19T16:11:20;6.80;64.50
46720;DHT22;32452;51.382;-0.002;2023-01-19T16:14:05;6.70;63.90
46720;DHT22;32452;51.382;-0.002;2023-01-19T16:16:51;6.60;64.10
46720;DHT22;32452;51.382;-0.002;2023-01-19T16:19:37;6.50;64.40
46720;DHT22;32452;51.382;-0.002;2023-01-19T16:22:23;6.40;64.50
46720;DHT22;32452;51.382;-0.002;2023-01-19T16:25:10;6.20;64.80
46720;DHT22;32452;51.382;-0.002;2023-01-19T16:27:56;6.10;65.00
46720;DHT22;32452;51.382;-0.002;2023-01-19T16:30:42;6.00;65.30
46720;DHT22;32452;51.382;-0.002;2023-01-19T16:33:27;6.00;65.70
46720;DHT22;32452;51.382;-0.002;2023-01-19T16:36:26;6.00;66.00
46720;DHT22;32452;51.382;-0.002;2023-01-19T16:39:13;5.90;66.20
46720;DHT22;32452;51.382;-0.002;2023-01-19T16:41:58;5.80;66.40
46720;DHT22;32452;51.382;-0.002;2023-01-19T16:44:44;5.70;66.50
46720;DHT22;32452;51.382;-0.002;2023-01-19T16:47:29;5.60;66.70
46720;DHT22;32452;51.382;-0.002;2023-01-19T16:50:15;5.60;67.20
46720;DHT22;32452;51.382;-0.002;2023-01-19T16:53:00;5.50;67.50
46720;DHT22;32452;51.382;-0.002;2023-01-19T16:55:46;5.40;67.80
46720;DHT22;32452;51.382;-0.002;2023-01-19T16:58:32;5.30;68.00
46720;DHT22;32452;51.382;-0.002;2023-01-19T17:01:18;5.20;68.30
46720;DHT22;32452;51.382;-0.002;2023-01-19T17:04:05;5.10;68.60
46720;DHT22;32452;51.382;-0.002;2023-01-19T17:06:51;5.10;68.90
46720;DHT22;32452;51.382;-0.002;2023-01-19T17:09:36;5.00;69.20
46720;DHT22;32452;51.382;-0.002;2023-01-19T17:12:22;4.90;69.50
46720;DHT22;32452;51.382;-0.002;2023-01-19T17:15:08;4.80;69.70
46720;DHT22;32452;51.382;-0.002;2023-01-19T17:17:53;4.80;70.00
46720;DHT22;32452;51.382;-0.002;2023-01-19T17:20:39;4.70;70.20
46720;DHT22;32452;51.382;-0.002;2023-01-19T17:23:24;4.70;70.40
46720;DHT22;32452;51.382;-0.002;2023-01-19T17:26:10;4.60;70.60
46720;DHT22;32452;51.382;-0.002;2023-01-19T17:29:05;4.60;70.80
46720;DHT22;32452;51.382;-0.002;2023-01-19T17:31:51;4.50;71.00
46720;DHT22;32452;51.382;-0.002;2023-01-19T17:34:36;4.50;71.30
46720;DHT22;32452;51.382;-0.002;2023-01-19T17:37:22;4.40;71.40
46720;DHT22;32452;51.382;-0.002;2023-01-19T17:40:08;4.40;71.70
46720;DHT22;32452;51.382;-0.002;2023-01-19T17:42:54;4.30;71.90
46720;DHT22;32452;51.382;-0.002;2023-01-19T17:45:39;4.30;72.10
46720;DHT22;32452;51.382;-0.002;2023-01-19T17:48:25;4.20;72.30
46720;DHT22;32452;51.382;-0.002;2023-01-19T17:51:11;4.10;72.40
46720;DHT22;32452;51.382;-0.002;2023-01-19T17:53:57;4.00;72.60
46720;DHT22;32452;51.382;-0.002;2023-01-19T17:56:43;4.00;72.90
46720;DHT22;32452;51.382;-0.002;2023-01-19T17:59:29;3.90;73.10
46720;DHT22;32452;51.382;-0.002;2023-01-19T18:02:14;3.80;73.30
46720;DHT22;32452;51.382;-0.002;2023-01-19T18:05:00;3.80;73.60
46720;DHT22;32452;51.382;-0.002;2023-01-19T18:07:46;3.70;73.80
46720;DHT22;32452;51.382;-0.002;2023-01-19T18:10:32;3.70;74.00
46720;DHT22;32452;51.382;-0.002;2023-01-19T18:13:17;3.50;74.00
46720;DHT22;32452;51.382;-0.002;2023-01-19T18:16:06;3.50;74.30
46720;DHT22;32452;51.382;-0.002;2023-01-19T18:18:53;3.40;74.60
46720;DHT22;32452;51.382;-0.002;2023-01-19T18:21:39;3.30;74.70
46720;DHT22;32452;51.382;-0.002;2023-01-19T18:24:24;3.30;75.80
46720;DHT22;32452;51.382;-0.002;2023-01-19T18:27:10;3.20;75.20
46720;DHT22;32452;51.382;-0.002;2023-01-19T18:29:59;3.20;75.50
46720;DHT22;32452;51.382;-0.002;2023-01-19T18:32:44;3.10;75.50
46720;DHT22;32452;51.382;-0.002;2023-01-19T18:35:30;3.10;75.80
46720;DHT22;32452;51.382;-0.002;2023-01-19T18:38:16;3.10;76.10
46720;DHT22;32452;51.382;-0.002;2023-01-19T18:41:07;3.00;76.30
46720;DHT22;32452;51.382;-0.002;2023-01-19T18:43:56;3.00;76.50
46720;DHT22;32452;51.382;-0.002;2023-01-19T18:46:43;3.00;76.70
46720;DHT22;32452;51.382;-0.002;2023-01-19T18:49:29;2.90;76.80
46720;DHT22;32452;51.382;-0.002;2023-01-19T18:52:14;2.90;77.00
46720;DHT22;32452;51.382;-0.002;2023-01-19T18:55:00;2.90;77.20